createdAt,value
2022-09-15T00:00:03.218Z,74
2022-09-15T00:20:03.215Z,75
2022-09-15T00:40:02.687Z,75
2022-09-15T01:00:03.075Z,75
2022-09-15T01:20:02.952Z,77
2022-09-15T01:40:02.542Z,78
2022-09-15T02:00:03.076Z,78
2022-09-15T02:20:02.804Z,79
2022-09-15T02:40:03.607Z,79
2022-09-15T03:00:02.861Z,80
2022-09-15T03:20:03.158Z,80
2022-09-15T03:40:02.929Z,80
2022-09-15T04:00:02.434Z,80
2022-09-15T04:20:03.355Z,80
2022-09-15T04:40:03.016Z,80
2022-09-15T05:00:02.383Z,80
2022-09-15T05:20:02.396Z,81
2022-09-15T05:40:08.677Z,82
2022-09-15T06:00:03.409Z,82
2022-09-15T06:20:03.444Z,81
2022-09-15T06:40:03.236Z,81
2022-09-15T07:00:02.713Z,81
2022-09-15T07:20:02.776Z,79
2022-09-15T07:40:03.572Z,77
2022-09-15T08:00:03.173Z,75
2022-09-15T08:20:03.109Z,73
2022-09-15T08:40:02.633Z,71
2022-09-15T09:00:03.169Z,70
2022-09-15T09:20:02.856Z,70
2022-09-15T09:40:03.376Z,69
2022-09-15T10:00:03.153Z,67
2022-09-15T10:20:03.203Z,65
2022-09-15T10:40:03.036Z,62
2022-09-15T11:00:02.728Z,60
2022-09-15T11:20:02.552Z,58
2022-09-15T11:40:02.997Z,55
2022-09-15T12:00:02.685Z,53
2022-09-15T12:20:02.675Z,52
2022-09-15T12:40:03.228Z,54
2022-09-15T13:00:03.164Z,55
2022-09-15T13:20:02.896Z,55
2022-09-15T13:40:02.621Z,54
2022-09-15T14:00:03.342Z,55
2022-09-15T14:20:02.977Z,55
2022-09-15T14:40:02.739Z,55
2022-09-15T15:00:03.417Z,54
2022-09-15T15:20:03.255Z,54
2022-09-15T15:40:02.951Z,55
2022-09-15T16:00:02.563Z,55
2022-09-15T16:20:02.553Z,59
2022-09-15T16:40:03.223Z,61
2022-09-15T17:00:03.150Z,60
2022-09-15T17:20:02.647Z,59
2022-09-15T17:40:03.976Z,60
2022-09-15T18:00:02.672Z,60
2022-09-15T18:20:02.607Z,61
2022-09-15T18:40:03.346Z,63
2022-09-15T19:00:03.039Z,63
2022-09-15T19:20:03.141Z,64
2022-09-15T19:40:02.961Z,66
2022-09-15T20:00:02.556Z,67
2022-09-15T20:20:02.719Z,68
2022-09-15T20:40:03.233Z,69
2022-09-15T21:00:02.785Z,69
2022-09-15T21:20:02.745Z,69
2022-09-15T21:40:03.562Z,68
2022-09-15T22:00:03.181Z,69
2022-09-15T22:20:02.752Z,70
2022-09-15T22:40:03.300Z,71
2022-09-15T23:00:02.729Z,72
2022-09-15T23:20:02.838Z,72
2022-09-15T23:40:03.262Z,72
